KLHB/LHB METAR and TAF weather

Enter ICAO airport designator
Station Type Date Time Source
KLHB METAR 2019/02/17 15:55 UTC NOAA

KLHB 171555Z AUTO 34014KT 10SM OVC013 09/08 A2993 RMK AO2 T00920080


Station Type Date Time Source
KLHB Decoded METAR 2019/02/17 15:55 UTC NOAA

Hearne, Hearne Municipal Airport, TX, United States (KLHB) 30-52-18N 096-37-20W
Feb 17, 2019 - 10:55 AM EST / 2019.02.17 1555 UTC
Wind: from the NNW (340 degrees) at 16 MPH (14 KT):0
Visibility: 10 mile(s):0
Sky conditions: overcast
Temperature: 48.6 F (9.2 C)
Dew Point: 46.4 F (8.0 C)
Relative Humidity: 92%
Pressure (altimeter): 29.93 in. Hg (1013 hPa)
ob: KLHB 171555Z AUTO 34014KT 10SM OVC013 09/08 A2993 RMK AO2 T00920080
cycle: 16

Station Type Date Time Source
KLHB TAF UTC NOAA

Error!


Example: see airport list